createdAt,value
2023-04-23T00:02:17.043Z,96990.11
2023-04-23T00:04:50.692Z,96987.39
2023-04-23T00:07:22.150Z,96985.77
2023-04-23T00:09:53.166Z,96986.75
2023-04-23T00:12:21.242Z,96986.52
2023-04-23T00:14:49.442Z,96981.77
2023-04-23T00:17:17.346Z,96983.61
2023-04-23T00:19:46.394Z,96979.73
2023-04-23T00:22:14.730Z,96974.42
2023-04-23T00:24:43.388Z,96975.71
2023-04-23T00:27:11.953Z,96972.48
2023-04-23T00:29:40.956Z,96971.64
2023-04-23T00:32:09.093Z,96969.81
2023-04-23T00:34:37.131Z,96969.69
2023-04-23T00:37:07.124Z,96968.71
2023-04-23T00:39:37.656Z,96972.53
2023-04-23T00:42:12.690Z,96969.64
2023-04-23T00:44:42.078Z,96967.65
2023-04-23T00:47:12.244Z,96970.48
2023-04-23T00:49:41.937Z,96975.69
2023-04-23T00:52:09.959Z,96971.90
2023-04-23T00:54:37.915Z,96978.48
2023-04-23T00:57:08.121Z,96979.20
2023-04-23T00:59:36.611Z,96974.21
2023-04-23T01:02:04.988Z,96972.22
2023-04-23T01:04:33.333Z,96971.09
2023-04-23T01:07:01.954Z,96969.45
2023-04-23T01:09:30.027Z,96973.10
2023-04-23T01:11:58.503Z,96971.14
2023-04-23T01:14:26.696Z,96973.53
2023-04-23T01:16:55.035Z,96972.84
2023-04-23T01:19:23.154Z,96972.61
2023-04-23T01:21:51.539Z,96975.30
2023-04-23T01:24:19.514Z,96972.80
2023-04-23T01:26:47.610Z,96970.67
2023-04-23T01:29:16.234Z,96971.20
2023-04-23T01:31:45.175Z,96971.09
2023-04-23T01:34:14.062Z,96973.58
2023-04-23T01:36:42.454Z,96971.58
2023-04-23T01:39:10.446Z,96971.49
2023-04-23T01:41:39.316Z,96970.00
2023-04-23T01:44:07.188Z,96969.34
2023-04-23T01:46:35.170Z,96971.62
2023-04-23T01:49:03.244Z,96968.21
2023-04-23T01:51:31.313Z,96967.66
2023-04-23T01:53:59.304Z,96966.45
2023-04-23T01:56:28.410Z,96965.08
2023-04-23T01:58:56.883Z,96965.08
2023-04-23T02:01:24.786Z,96963.52
2023-04-23T02:03:53.116Z,96964.21
2023-04-23T02:06:21.578Z,96966.29
2023-04-23T02:08:50.005Z,96971.98
2023-04-23T02:11:18.081Z,96974.05
2023-04-23T02:13:46.157Z,96971.02
2023-04-23T02:16:14.359Z,96974.86
2023-04-23T02:18:42.617Z,96968.48
2023-04-23T02:21:11.519Z,96968.64
2023-04-23T02:23:39.689Z,96966.86
2023-04-23T02:26:08.179Z,96969.73
2023-04-23T02:28:36.153Z,96967.11
2023-04-23T02:31:04.420Z,96965.48
2023-04-23T02:33:32.410Z,96967.15
2023-04-23T02:36:00.377Z,96967.40
2023-04-23T02:38:28.462Z,96967.12
2023-04-23T02:40:56.644Z,96965.99
2023-04-23T02:43:24.720Z,96965.59
2023-04-23T02:45:52.793Z,96965.48
2023-04-23T02:48:22.507Z,96968.34
2023-04-23T02:50:51.192Z,96966.54
2023-04-23T02:53:19.062Z,96965.42
2023-04-23T02:55:46.936Z,96966.08
2023-04-23T02:58:15.017Z,96966.83
2023-04-23T03:00:43.874Z,96971.07
2023-04-23T03:03:12.818Z,96970.66
2023-04-23T03:05:41.095Z,96967.56
2023-04-23T03:08:09.474Z,96970.77
2023-04-23T03:10:37.538Z,96970.58
2023-04-23T03:13:06.328Z,96972.09
2023-04-23T03:15:34.408Z,96972.91
2023-04-23T03:18:04.671Z,96976.34
2023-04-23T03:20:33.143Z,96973.73
2023-04-23T03:23:01.308Z,96975.56
2023-04-23T03:25:29.385Z,96969.36
2023-04-23T03:27:57.791Z,96973.40
2023-04-23T03:30:26.667Z,96973.55
2023-04-23T03:32:58.079Z,96978.67
2023-04-23T03:35:26.727Z,96970.41
2023-04-23T03:37:57.641Z,96971.23
2023-04-23T03:40:26.130Z,96976.02
2023-04-23T03:42:58.196Z,96976.45
2023-04-23T03:45:41.216Z,96980.91
2023-04-23T03:48:09.293Z,96987.60
2023-04-23T03:50:40.535Z,96984.62
2023-04-23T03:53:28.769Z,96982.54
2023-04-23T03:56:15.690Z,96985.39
2023-04-23T03:58:50.617Z,96986.73
2023-04-23T04:01:18.901Z,96987.75
2023-04-23T04:03:47.063Z,96988.23
2023-04-23T04:06:15.268Z,96993.35
2023-04-23T04:08:43.236Z,96993.00
2023-04-23T04:11:11.506Z,96999.89
2023-04-23T04:13:39.697Z,96999.55
2023-04-23T04:16:08.312Z,97001.23
2023-04-23T04:18:36.350Z,96995.83
2023-04-23T04:21:04.364Z,96995.84
2023-04-23T04:23:33.740Z,97001.48
2023-04-23T04:26:02.637Z,96999.67
2023-04-23T04:28:30.601Z,97001.23
2023-04-23T04:30:58.655Z,97003.09
2023-04-23T04:33:26.840Z,97002.52
2023-04-23T04:35:55.110Z,97002.50
2023-04-23T04:38:23.121Z,97006.27
2023-04-23T04:40:50.998Z,97010.56
2023-04-23T04:43:19.110Z,97011.91
2023-04-23T04:45:47.037Z,97015.89
2023-04-23T04:48:15.021Z,97017.58
2023-04-23T04:50:43.192Z,97020.11
2023-04-23T04:53:11.362Z,97020.45
2023-04-23T04:55:39.440Z,97025.23
2023-04-23T04:58:07.826Z,97028.48
2023-04-23T05:00:35.755Z,97031.48
2023-04-23T05:03:04.317Z,97030.96
2023-04-23T05:05:33.301Z,97034.34
2023-04-23T05:08:04.337Z,97040.02
2023-04-23T05:10:32.303Z,97041.36
2023-04-23T05:13:00.898Z,97044.62
2023-04-23T05:15:29.234Z,97047.19
2023-04-23T05:17:57.431Z,97053.52
2023-04-23T05:20:25.629Z,97053.81
2023-04-23T05:22:53.595Z,97056.16
2023-04-23T05:25:21.586Z,97055.59
2023-04-23T05:27:49.660Z,97058.67
2023-04-23T05:30:18.046Z,97058.78
2023-04-23T05:32:46.235Z,97057.70
2023-04-23T05:35:14.140Z,97057.30
2023-04-23T05:37:42.191Z,97055.67
2023-04-23T05:40:10.657Z,97055.77
2023-04-23T05:42:38.752Z,97056.74
2023-04-23T05:45:08.852Z,97060.16
2023-04-23T05:47:37.497Z,97060.47
2023-04-23T05:50:06.612Z,97061.58
2023-04-23T05:52:37.492Z,97060.81
2023-04-23T05:55:06.805Z,97062.29
2023-04-23T05:57:34.856Z,97061.54
2023-04-23T06:00:06.056Z,97065.08
2023-04-23T06:02:40.851Z,97068.75
2023-04-23T06:05:09.566Z,97069.89
2023-04-23T06:07:37.802Z,97070.01
2023-04-23T06:10:06.400Z,97070.27
2023-04-23T06:12:34.456Z,97072.15
2023-04-23T06:15:02.573Z,97071.94
2023-04-23T06:17:30.739Z,97073.31
2023-04-23T06:19:59.007Z,97071.73
2023-04-23T06:22:27.044Z,97068.09
2023-04-23T06:24:55.194Z,97067.70
2023-04-23T06:27:23.087Z,97067.19
2023-04-23T06:29:51.934Z,97066.63
2023-04-23T06:32:20.881Z,97063.83
2023-04-23T06:35:00.259Z,97065.13
2023-04-23T06:37:30.875Z,97064.75
2023-04-23T06:39:59.590Z,97064.86
2023-04-23T06:42:27.849Z,97063.20
2023-04-23T06:45:17.114Z,97057.56
2023-04-23T06:47:45.423Z,97055.36
2023-04-23T06:50:13.466Z,97055.21
2023-04-23T06:52:41.961Z,97054.55
2023-04-23T06:55:10.352Z,97055.92
2023-04-23T06:57:38.215Z,97053.92
2023-04-23T07:00:09.464Z,97055.97
2023-04-23T07:02:39.713Z,97052.13
2023-04-23T07:05:10.632Z,97052.13
2023-04-23T07:07:38.628Z,97050.23
2023-04-23T07:10:07.297Z,97046.43
2023-04-23T07:12:35.213Z,97049.13
2023-04-23T07:15:03.817Z,97044.94
2023-04-23T07:17:31.980Z,97046.27
2023-04-23T07:20:00.269Z,97047.40
2023-04-23T07:22:30.446Z,97044.25
2023-04-23T07:24:58.854Z,97045.91
2023-04-23T07:27:26.915Z,97043.96
2023-04-23T07:29:55.000Z,97041.49
2023-04-23T07:32:23.966Z,97040.19
2023-04-23T07:34:52.634Z,97039.64
2023-04-23T07:37:21.749Z,97039.50
2023-04-23T07:39:50.103Z,97038.26
2023-04-23T07:42:18.113Z,97037.14
2023-04-23T07:44:46.116Z,97037.55
2023-04-23T07:47:14.085Z,97039.04
2023-04-23T07:49:42.452Z,97041.27
2023-04-23T07:52:10.784Z,97041.07
2023-04-23T07:54:38.935Z,97040.41
2023-04-23T07:57:07.030Z,97041.44
2023-04-23T07:59:34.990Z,97045.00
2023-04-23T08:02:03.061Z,97040.27
2023-04-23T08:04:31.499Z,97036.69
2023-04-23T08:06:59.638Z,97034.74
2023-04-23T08:09:27.533Z,97031.69
2023-04-23T08:11:55.589Z,97033.27
2023-04-23T08:14:23.556Z,97035.59
2023-04-23T08:16:51.520Z,97033.23
2023-04-23T08:19:19.404Z,97031.58
2023-04-23T08:21:47.684Z,97031.80
2023-04-23T08:24:15.655Z,97036.92
2023-04-23T08:26:43.830Z,97030.24
2023-04-23T08:29:11.907Z,97023.23
2023-04-23T08:31:40.003Z,97025.89
2023-04-23T08:34:07.895Z,97021.32
2023-04-23T08:36:36.034Z,97023.59
2023-04-23T08:39:04.423Z,97021.81
2023-04-23T08:41:35.873Z,97016.05
2023-04-23T08:44:24.107Z,97018.54
2023-04-23T08:46:53.664Z,97016.34
2023-04-23T08:49:21.999Z,97014.37
2023-04-23T08:51:52.967Z,97017.10
2023-04-23T08:54:32.373Z,97013.41
2023-04-23T08:57:01.073Z,97015.23
2023-04-23T08:59:30.573Z,97012.25
2023-04-23T09:02:01.124Z,97012.94
2023-04-23T09:04:31.706Z,97012.55
2023-04-23T09:07:00.379Z,97007.86
2023-04-23T09:09:29.337Z,97006.61
2023-04-23T09:11:57.506Z,97002.92
2023-04-23T09:14:25.791Z,97000.15
2023-04-23T09:16:54.254Z,96998.77
2023-04-23T09:19:23.063Z,96997.02
2023-04-23T09:21:51.566Z,96995.45
2023-04-23T09:24:22.074Z,96992.50
2023-04-23T09:26:51.183Z,96999.91
2023-04-23T09:29:20.591Z,97000.23
2023-04-23T09:31:52.090Z,96998.82
2023-04-23T09:34:20.967Z,96999.83
2023-04-23T09:36:50.865Z,96997.57
2023-04-23T09:39:19.808Z,96999.09
2023-04-23T09:41:48.145Z,97000.96
2023-04-23T09:44:19.803Z,96998.84
2023-04-23T09:46:48.209Z,96996.58
2023-04-23T09:49:16.461Z,96994.66
2023-04-23T09:51:46.427Z,96990.17
2023-04-23T09:54:25.966Z,96990.33
2023-04-23T09:56:57.391Z,96986.30
2023-04-23T09:59:32.475Z,96981.35
2023-04-23T10:02:08.143Z,96982.72
2023-04-23T10:04:36.534Z,96979.38
2023-04-23T10:09:42.244Z,96962.55
2023-04-23T10:12:24.296Z,96958.25
2023-04-23T10:14:59.864Z,96958.69
2023-04-23T10:17:28.198Z,96954.77
2023-04-23T10:19:57.342Z,96956.27
2023-04-23T10:22:27.071Z,96957.92
2023-04-23T10:24:57.380Z,96946.92
2023-04-23T10:27:40.390Z,96949.44
2023-04-23T10:30:17.236Z,96947.22
2023-04-23T10:32:48.587Z,96945.09
2023-04-23T10:35:17.229Z,96937.71
2023-04-23T10:37:47.238Z,96934.24
2023-04-23T10:40:18.927Z,96935.29
2023-04-23T10:42:47.491Z,96932.04
2023-04-23T10:45:24.108Z,96934.55
2023-04-23T10:47:56.144Z,96933.46
2023-04-23T10:50:26.502Z,96927.05
2023-04-23T10:52:56.173Z,96923.04
2023-04-23T10:55:25.712Z,96924.23
2023-04-23T10:58:04.239Z,96917.11
2023-04-23T11:00:41.599Z,96915.63
2023-04-23T11:03:28.289Z,96918.11
2023-04-23T11:05:56.454Z,96920.30
2023-04-23T11:08:24.653Z,96919.16
2023-04-23T11:10:57.139Z,96923.02
2023-04-23T11:13:29.288Z,96925.16
2023-04-23T11:16:29.872Z,96921.20
2023-04-23T11:19:03.690Z,96923.90
2023-04-23T11:21:50.414Z,96921.45
2023-04-23T11:24:18.393Z,96922.38
2023-04-23T11:26:47.592Z,96920.86
2023-04-23T11:29:15.981Z,96933.16
2023-04-23T11:31:58.492Z,96941.04
2023-04-23T11:34:30.511Z,96932.45
2023-04-23T11:36:59.338Z,96934.45
2023-04-23T11:39:27.548Z,96932.41
2023-04-23T11:41:55.503Z,96934.94
2023-04-23T11:44:23.669Z,96936.24
2023-04-23T11:46:51.758Z,96931.14
2023-04-23T11:49:20.542Z,96929.61
2023-04-23T11:51:48.529Z,96926.86
2023-04-23T11:54:16.620Z,96923.52
2023-04-23T11:56:45.068Z,96920.45
2023-04-23T11:59:13.051Z,96920.80
2023-04-23T12:01:45.943Z,96916.00
2023-04-23T12:04:15.137Z,96910.54
2023-04-23T12:06:45.868Z,96907.63
2023-04-23T12:09:14.603Z,96905.66
2023-04-23T12:11:43.362Z,96900.68
2023-04-23T12:14:12.416Z,96903.38
2023-04-23T12:16:45.787Z,96899.64
2023-04-23T12:19:14.862Z,96894.56
2023-04-23T12:21:54.584Z,96889.68
2023-04-23T12:24:26.665Z,96891.87
2023-04-23T12:26:56.146Z,96885.80
2023-04-23T12:29:24.979Z,96880.80
2023-04-23T12:31:53.771Z,96881.16
2023-04-23T12:34:21.833Z,96876.42
2023-04-23T12:36:54.371Z,96877.52
2023-04-23T12:39:32.532Z,96873.16
2023-04-23T12:42:01.725Z,96875.98
2023-04-23T12:44:30.010Z,96868.73
2023-04-23T12:46:59.527Z,96868.59
2023-04-23T12:49:29.663Z,96863.08
2023-04-23T12:52:01.286Z,96857.41
2023-04-23T12:54:39.482Z,96856.56
2023-04-23T12:57:08.419Z,96855.40
2023-04-23T12:59:36.486Z,96855.76
2023-04-23T13:02:05.770Z,96851.62
2023-04-23T13:04:34.786Z,96849.06
2023-04-23T13:07:03.080Z,96847.83
2023-04-23T13:09:31.139Z,96844.12
2023-04-23T13:12:00.503Z,96844.44
2023-04-23T13:14:29.228Z,96843.09
2023-04-23T13:16:58.142Z,96837.09
2023-04-23T13:19:26.556Z,96843.73
2023-04-23T13:21:54.693Z,96841.11
2023-04-23T13:24:22.869Z,96837.12
2023-04-23T13:26:50.960Z,96837.88
2023-04-23T13:29:19.025Z,96833.78
2023-04-23T13:31:47.049Z,96830.38
2023-04-23T13:34:15.321Z,96826.92
2023-04-23T13:36:43.464Z,96825.98
2023-04-23T13:39:14.169Z,96824.00
2023-04-23T13:41:42.383Z,96826.20
2023-04-23T13:44:10.451Z,96825.02
2023-04-23T13:46:40.278Z,96822.20
2023-04-23T13:49:08.343Z,96817.98
2023-04-23T13:51:36.868Z,96816.80
2023-04-23T13:54:04.905Z,96815.61
2023-04-23T13:56:33.093Z,96812.63
2023-04-23T13:59:17.984Z,96816.57
2023-04-23T14:01:50.284Z,96815.81
2023-04-23T14:04:18.961Z,96815.90
2023-04-23T14:06:46.986Z,96814.21
2023-04-23T14:09:14.882Z,96814.55
2023-04-23T14:11:43.047Z,96817.02
2023-04-23T14:14:11.058Z,96811.87
2023-04-23T14:16:39.409Z,96812.59
2023-04-23T14:19:07.482Z,96813.66
2023-04-23T14:21:36.344Z,96813.10
2023-04-23T14:24:19.701Z,96815.65
2023-04-23T14:26:50.015Z,96811.30
2023-04-23T14:29:29.261Z,96807.40
2023-04-23T14:31:57.325Z,96802.85
2023-04-23T14:34:25.318Z,96802.20
2023-04-23T14:36:53.490Z,96802.91
2023-04-23T14:39:26.360Z,96798.17
2023-04-23T14:41:54.271Z,96796.15
2023-04-23T14:44:29.108Z,96798.73
2023-04-23T14:46:57.121Z,96798.32
2023-04-23T14:49:25.363Z,96792.92
2023-04-23T14:51:58.208Z,96794.14
2023-04-23T14:54:26.292Z,96795.27
2023-04-23T14:56:54.267Z,96794.27
2023-04-23T14:59:23.461Z,96793.91
2023-04-23T15:01:51.700Z,96794.83
2023-04-23T15:04:19.738Z,96786.95
2023-04-23T15:06:48.004Z,96788.33
2023-04-23T15:09:15.905Z,96790.41
2023-04-23T15:11:44.468Z,96791.48
2023-04-23T15:14:21.665Z,96791.36
2023-04-23T15:16:50.410Z,96794.46
2023-04-23T15:19:19.095Z,96793.93
2023-04-23T15:21:47.839Z,96794.91
2023-04-23T15:24:16.560Z,96796.95
2023-04-23T15:26:45.997Z,96797.69
2023-04-23T15:29:14.621Z,96797.45
2023-04-23T15:31:42.603Z,96792.31
2023-04-23T15:34:12.337Z,96787.23
2023-04-23T15:36:40.593Z,96789.85
2023-04-23T15:39:09.370Z,96789.92
2023-04-23T15:41:40.291Z,96788.91
2023-04-23T15:44:12.886Z,96789.71
2023-04-23T15:46:40.950Z,96778.73
2023-04-23T15:49:09.365Z,96781.70
2023-04-23T15:51:37.629Z,96777.81
2023-04-23T15:54:08.828Z,96778.50
2023-04-23T15:56:37.345Z,96775.73
2023-04-23T15:59:06.167Z,96772.78
2023-04-23T16:01:34.098Z,96772.84
2023-04-23T16:04:10.317Z,96770.23
2023-04-23T16:06:40.521Z,96769.73
2023-04-23T16:09:08.737Z,96769.71
2023-04-23T16:11:38.025Z,96770.91
2023-04-23T16:14:06.505Z,96770.25
2023-04-23T16:16:34.970Z,96772.37
2023-04-23T16:19:03.338Z,96769.98
2023-04-23T16:21:32.314Z,96769.73
2023-04-23T16:24:00.448Z,96770.09
2023-04-23T16:26:29.318Z,96767.91
2023-04-23T16:31:28.599Z,96768.42
2023-04-23T16:33:56.851Z,96764.71
2023-04-23T16:36:24.920Z,96764.39
2023-04-23T16:38:53.104Z,96765.38
2023-04-23T16:41:20.957Z,96764.73
2023-04-23T16:43:48.930Z,96762.52
2023-04-23T16:46:17.067Z,96764.20
2023-04-23T16:48:45.607Z,96762.67
2023-04-23T16:51:13.788Z,96763.73
2023-04-23T16:53:41.618Z,96762.14
2023-04-23T16:56:09.847Z,96765.78
2023-04-23T16:58:37.816Z,96763.41
2023-04-23T17:01:05.695Z,96763.98
2023-04-23T17:03:34.046Z,96764.58
2023-04-23T17:06:10.311Z,96760.61
2023-04-23T17:08:38.926Z,96764.13
2023-04-23T17:11:07.420Z,96762.24
2023-04-23T17:13:35.343Z,96759.98
2023-04-23T17:16:03.584Z,96759.12
2023-04-23T17:18:31.530Z,96759.81
2023-04-23T17:20:59.526Z,96755.20
2023-04-23T17:23:27.480Z,96759.00
2023-04-23T17:25:55.659Z,96759.67
2023-04-23T17:28:23.619Z,96759.45
2023-04-23T17:30:52.538Z,96763.42
2023-04-23T17:33:21.437Z,96765.02
2023-04-23T17:35:52.084Z,96763.73
2023-04-23T17:38:21.066Z,96765.07
2023-04-23T17:40:49.785Z,96767.42
2023-04-23T17:43:18.448Z,96766.73
2023-04-23T17:45:47.668Z,96767.23
2023-04-23T17:48:16.042Z,96769.02
2023-04-23T17:50:47.081Z,96768.55
2023-04-23T17:53:15.351Z,96771.97
2023-04-23T17:55:43.231Z,96770.27
2023-04-23T17:58:11.510Z,96773.52
2023-04-23T18:00:41.839Z,96772.58
2023-04-23T18:03:10.399Z,96773.95
2023-04-23T18:05:38.412Z,96773.55
2023-04-23T18:08:07.625Z,96772.16
2023-04-23T18:10:35.785Z,96778.10
2023-04-23T18:13:05.390Z,96778.52
2023-04-23T18:15:33.402Z,96782.08
2023-04-23T18:18:01.310Z,96779.31
2023-04-23T18:20:30.442Z,96783.89
2023-04-23T18:22:58.286Z,96785.86
2023-04-23T18:25:26.885Z,96787.13
2023-04-23T18:27:54.878Z,96786.09
2023-04-23T18:30:25.210Z,96788.27
2023-04-23T18:33:08.796Z,96789.77
2023-04-23T18:35:36.825Z,96787.45
2023-04-23T18:38:07.856Z,96788.75
2023-04-23T18:40:35.826Z,96789.84
2023-04-23T18:43:03.910Z,96793.44
2023-04-23T18:45:31.984Z,96793.02
2023-04-23T18:48:25.951Z,96793.95
2023-04-23T18:50:57.335Z,96796.96
2023-04-23T18:53:25.379Z,96803.52
2023-04-23T18:55:53.459Z,96804.89
2023-04-23T18:58:23.674Z,96804.70
2023-04-23T19:00:51.654Z,96801.60
2023-04-23T19:03:26.758Z,96802.96
2023-04-23T19:05:55.584Z,96797.66
2023-04-23T19:08:28.737Z,96801.23
2023-04-23T19:10:57.490Z,96799.65
2023-04-23T19:13:25.435Z,96801.32
2023-04-23T19:15:53.720Z,96801.14
2023-04-23T19:18:22.107Z,96802.21
2023-04-23T19:20:51.206Z,96806.27
2023-04-23T19:23:19.898Z,96812.42
2023-04-23T19:25:48.385Z,96810.45
2023-04-23T19:28:16.357Z,96815.38
2023-04-23T19:30:44.331Z,96812.21
2023-04-23T19:33:12.417Z,96813.70
2023-04-23T19:35:40.687Z,96811.25
2023-04-23T19:38:09.614Z,96811.14
2023-04-23T19:40:37.661Z,96809.89
2023-04-23T19:43:05.643Z,96808.98
2023-04-23T19:45:33.708Z,96809.05
2023-04-23T19:48:04.709Z,96804.94
2023-04-23T19:50:33.030Z,96811.21
2023-04-23T19:53:01.119Z,96808.61
2023-04-23T19:55:29.268Z,96805.80
2023-04-23T19:57:57.364Z,96805.77
2023-04-23T20:00:26.568Z,96803.34
2023-04-23T20:02:55.728Z,96798.35
2023-04-23T20:05:23.747Z,96794.84
2023-04-23T20:07:51.623Z,96796.45
2023-04-23T20:10:19.597Z,96795.66
2023-04-23T20:12:47.524Z,96798.05
2023-04-23T20:15:15.541Z,96797.27
2023-04-23T20:17:43.395Z,96795.17
2023-04-23T20:20:11.690Z,96795.26
2023-04-23T20:22:39.590Z,96789.27
2023-04-23T20:25:08.261Z,96791.59
2023-04-23T20:27:36.371Z,96793.67
2023-04-23T20:30:05.119Z,96793.77
2023-04-23T20:32:33.075Z,96795.02
2023-04-23T20:35:01.196Z,96796.48
2023-04-23T20:37:29.257Z,96795.46
2023-04-23T20:39:58.436Z,96792.74
2023-04-23T20:42:29.266Z,96795.51
2023-04-23T20:44:57.883Z,96796.38
2023-04-23T20:47:26.214Z,96796.69
2023-04-23T20:49:54.239Z,96799.10
2023-04-23T20:52:22.316Z,96797.97
2023-04-23T20:54:50.189Z,96798.80
2023-04-23T20:57:18.249Z,96798.58
2023-04-23T20:59:46.248Z,96800.08
2023-04-23T21:02:15.463Z,96799.55
2023-04-23T21:04:43.650Z,96800.52
2023-04-23T21:07:11.552Z,96792.80
2023-04-23T21:09:39.618Z,96790.50
2023-04-23T21:12:07.503Z,96791.93
2023-04-23T21:14:36.257Z,96789.91
2023-04-23T21:17:04.281Z,96788.96
2023-04-23T21:19:32.412Z,96790.55
2023-04-23T21:22:00.491Z,96783.70
2023-04-23T21:24:28.332Z,96784.64
2023-04-23T21:26:56.223Z,96785.39
2023-04-23T21:29:26.131Z,96783.85
2023-04-23T21:31:54.172Z,96783.57
2023-04-23T21:34:22.289Z,96781.86
2023-04-23T21:36:50.567Z,96783.42
2023-04-23T21:39:18.737Z,96778.89
2023-04-23T21:41:47.260Z,96778.70
2023-04-23T21:44:15.357Z,96770.70
2023-04-23T21:46:44.552Z,96768.85
2023-04-23T21:49:13.413Z,96767.61
2023-04-23T21:51:41.278Z,96763.29
2023-04-23T21:54:09.335Z,96760.73
2023-04-23T21:56:37.534Z,96757.77
2023-04-23T21:59:05.392Z,96759.31
2023-04-23T22:01:36.545Z,96757.44
2023-04-23T22:04:05.027Z,96755.14
2023-04-23T22:06:34.543Z,96757.39
2023-04-23T22:09:02.623Z,96753.36
2023-04-23T22:11:31.582Z,96755.54
2023-04-23T22:14:00.312Z,96756.31
2023-04-23T22:16:29.227Z,96760.86
2023-04-23T22:18:57.929Z,96758.30
2023-04-23T22:21:26.001Z,96759.34
2023-04-23T22:23:54.060Z,96757.84
2023-04-23T22:26:22.227Z,96759.39
2023-04-23T22:28:50.422Z,96756.59
2023-04-23T22:31:18.666Z,96757.61
2023-04-23T22:33:46.967Z,96754.56
2023-04-23T22:36:14.833Z,96753.78
2023-04-23T22:38:42.706Z,96750.97
2023-04-23T22:41:10.790Z,96750.95
2023-04-23T22:43:39.381Z,96749.69
2023-04-23T22:46:07.817Z,96749.47
2023-04-23T22:48:37.852Z,96748.59
2023-04-23T22:51:06.063Z,96746.98
2023-04-23T22:53:33.974Z,96742.98
2023-04-23T22:56:02.420Z,96741.20
2023-04-23T22:58:30.360Z,96734.47
2023-04-23T23:00:58.591Z,96732.08
2023-04-23T23:03:26.855Z,96732.56
2023-04-23T23:05:55.221Z,96729.45
2023-04-23T23:08:23.320Z,96724.08
2023-04-23T23:10:51.445Z,96721.98
2023-04-23T23:13:19.309Z,96714.55
2023-04-23T23:15:47.287Z,96716.32
2023-04-23T23:18:15.414Z,96718.88
2023-04-23T23:20:45.232Z,96716.27
2023-04-23T23:23:13.312Z,96713.01
2023-04-23T23:25:41.485Z,96708.83
2023-04-23T23:28:09.568Z,96710.57
2023-04-23T23:30:37.547Z,96707.68
2023-04-23T23:33:05.703Z,96705.65
2023-04-23T23:35:33.918Z,96698.88
2023-04-23T23:38:01.979Z,96698.34
2023-04-23T23:40:29.961Z,96695.77
2023-04-23T23:42:57.766Z,96694.94
2023-04-23T23:45:25.996Z,96690.20
2023-04-23T23:47:54.714Z,96692.27
2023-04-23T23:50:22.677Z,96686.98
2023-04-23T23:52:51.044Z,96687.02
2023-04-23T23:55:19.042Z,96687.22
2023-04-23T23:57:46.992Z,96682.85
